Fort Worth - NOAA's Hourly Summary for Wednesday, July 11, 2018
Hour Temp
(f)
RH
(%)
Solar Rad.
(MJ/m2)
Rainfall
(in)
Wind
(mph)
7/11/2018 12:00 AM 80 72 0 0 0.87
7/11/2018 1:00 AM 80 71 0 0 1.15
7/11/2018 2:00 AM 78 76 0 0 2.15
7/11/2018 3:00 AM 77 78 0 0 2.43
7/11/2018 4:00 AM 77 79 0 0 2.61
7/11/2018 5:00 AM 77 81 0 0 2.94
7/11/2018 6:00 AM 76 81 0.01 0 2.83
7/11/2018 7:00 AM 77 81 0.15 0 3.23
7/11/2018 8:00 AM 79 76 0.73 0 3.49
7/11/2018 9:00 AM 83 65 1.19 0 3.77
7/11/2018 10:00 AM 87 56 1.88 0 4.06
7/11/2018 11:00 AM 89 54 2.21 0 4.24
7/11/2018 12:00 PM 89 52 1.34 0 3.37
7/11/2018 1:00 PM 92 43 2.27 0 2.4
7/11/2018 2:00 PM 95 35 2.58 0 4.32
7/11/2018 3:00 PM 96 38 3 0 8.35
7/11/2018 4:00 PM 94 41 2.59 0 7.95
7/11/2018 5:00 PM 94 41 1.98 0 9.97
7/11/2018 6:00 PM 94 40 1.31 0 8.07
7/11/2018 7:00 PM 94 37 0.68 0 6.94
7/11/2018 8:00 PM 92 41 0.18 0 6.5
7/11/2018 9:00 PM 90 44 0 0 5.89
7/11/2018 10:00 PM 88 48 0 0 7.5
7/11/2018 11:00 PM 86 56 0 0 4.88
Data Summary 86 57 22.10 0.00 4.58